Time;durP1;ratioP1;P1;durP2;ratioP2;P2;SDS_P1;SDS_P2;PMS_P1;PMS_P2;Temp;Humidity;BMP_temperature;BMP_pressure;BME280_temperature;BME280_humidity;BME280_pressure;Samples;Min_cycle;Max_cycle;Signal;HPM_P1;HPM_P2
2023/04/30 00:01:35;;;;;;;11.60;4.80;;;;;;;10.02;48.58;100491.44;106003;1283;75084;-92
2023/04/30 00:04:02;;;;;;;9.00;4.60;;;;;;;9.99;48.55;100488.59;105953;1282;73245;-93
2023/04/30 00:06:32;;;;;;;9.20;4.60;;;;;;;9.97;48.61;100483.87;105774;1281;73045;-93
2023/04/30 00:08:59;;;;;;;7.90;3.90;;;;;;;9.95;48.64;100482.21;105976;1281;60697;-92
2023/04/30 00:11:26;;;;;;;8.10;4.30;;;;;;;9.93;48.60;100481.02;105962;1282;60398;-93
2023/04/30 00:13:57;;;;;;;8.10;4.30;;;;;;;9.93;48.54;100481.33;106027;1285;73824;-93
2023/04/30 00:16:24;;;;;;;8.50;4.30;;;;;;;9.91;48.38;100483.94;106070;1279;71052;-92
2023/04/30 00:18:52;;;;;;;8.30;4.30;;;;;;;9.90;48.40;100486.96;105854;1279;72677;-93
2023/04/30 00:21:21;;;;;;;7.50;4.50;;;;;;;9.88;48.43;100485.52;105831;1279;60485;-93
2023/04/30 00:23:48;;;;;;;7.50;4.40;;;;;;;9.87;48.49;100482.66;105912;1282;60554;-93
2023/04/30 00:26:18;;;;;;;8.00;4.60;;;;;;;9.85;48.50;100480.73;105788;1282;73981;-92
2023/04/30 00:28:46;;;;;;;9.50;4.40;;;;;;;9.85;48.56;100475.30;105741;1282;71920;-93
2023/04/30 00:31:14;;;;;;;12.00;4.90;;;;;;;9.85;48.67;100468.30;105826;1283;71692;-93
2023/04/30 00:33:44;;;;;;;8.90;4.60;;;;;;;9.85;48.59;100467.39;98548;1279;10001698;-93
2023/04/30 00:36:12;;;;;;;7.60;4.60;;;;;;;9.86;48.42;100458.54;106043;1279;74149;-94
2023/04/30 00:38:39;;;;;;;10.60;4.40;;;;;;;9.87;48.30;100457.17;106178;1279;72882;-93
2023/04/30 00:41:07;;;;;;;9.90;4.90;;;;;;;9.89;48.06;100453.27;106087;1279;71910;-94
2023/04/30 00:43:34;;;;;;;8.40;5.10;;;;;;;9.90;48.02;100450.47;106089;1279;60973;-93
2023/04/30 00:46:04;;;;;;;7.90;4.40;;;;;;;9.91;47.91;100444.61;106083;1282;61192;-95
2023/04/30 00:48:31;;;;;;;7.70;4.60;;;;;;;9.93;47.92;100442.05;106077;1282;75087;-92
2023/04/30 00:51:00;;;;;;;9.80;4.30;;;;;;;9.93;47.94;100443.65;106055;1279;74160;-94
2023/04/30 00:53:29;;;;;;;8.80;4.80;;;;;;;9.92;47.85;100441.25;105878;1279;71779;-95
2023/04/30 00:55:58;;;;;;;8.90;4.70;;;;;;;9.93;47.87;100442.27;106048;1279;60026;-93
2023/04/30 00:58:25;;;;;;;9.80;4.60;;;;;;;9.92;47.90;100444.61;106052;1280;60466;-93
2023/04/30 01:00:53;;;;;;;6.70;4.30;;;;;;;9.92;47.87;100445.36;106062;1280;72255;-93
2023/04/30 01:03:21;;;;;;;10.00;4.80;;;;;;;9.92;47.75;100445.89;106103;1279;73977;-94
2023/04/30 01:05:49;;;;;;;10.30;4.50;;;;;;;9.91;47.70;100441.58;106086;1280;72314;-95
2023/04/30 01:08:16;;;;;;;8.80;4.60;;;;;;;9.90;47.72;100439.26;106008;1281;60362;-94
2023/04/30 01:10:53;;;;;;;8.30;4.50;;;;;;;9.89;47.85;100436.32;105832;1279;60457;-95
2023/04/30 01:13:26;;;;;;;9.50;4.60;;;;;;;9.86;47.89;100436.56;105839;1279;74182;-95
2023/04/30 01:16:18;;;;;;;9.30;4.70;;;;;;;9.85;47.99;100439.07;105780;1279;74090;-93
2023/04/30 01:19:02;;;;;;;7.40;4.10;;;;;;;9.81;48.17;100434.12;105758;1281;72760;-95
2023/04/30 01:21:29;;;;;;;8.30;4.20;;;;;;;9.78;48.27;100435.22;106102;1279;60917;-94
2023/04/30 01:24:06;;;;;;;8.30;4.50;;;;;;;9.77;48.42;100435.10;106003;1285;60526;-94
2023/04/30 01:27:04;;;;;;;7.70;4.20;;;;;;;9.73;48.71;100432.94;105831;1279;73984;-94
2023/04/30 01:29:31;;;;;;;8.90;4.10;;;;;;;9.73;48.91;100434.38;105924;1279;73750;-96
2023/04/30 01:31:58;;;;;;;6.80;4.10;;;;;;;9.70;49.00;100428.96;106065;1279;73663;-94
2023/04/30 01:34:25;;;;;;;8.30;4.70;;;;;;;9.68;49.12;100428.05;106120;1280;60742;-95
2023/04/30 01:37:07;;;;;;;6.80;4.10;;;;;;;9.65;49.12;100426.69;106105;1279;61524;-92
2023/04/30 01:40:07;;;;;;;8.20;4.10;;;;;;;9.62;49.11;100420.36;106160;1279;75043;-93
2023/04/30 01:42:40;;;;;;;8.00;4.60;;;;;;;9.60;49.08;100419.27;106121;1279;72037;-94
2023/04/30 01:45:20;;;;;;;8.90;4.10;;;;;;;9.58;49.07;100417.77;105966;1279;71439;-93
2023/04/30 01:47:47;;;;;;;7.90;4.10;;;;;;;9.53;49.26;100416.18;106108;1283;60419;-93
2023/04/30 01:50:14;;;;;;;8.30;4.00;;;;;;;9.50;49.25;100411.50;106084;1280;60365;-93
2023/04/30 01:52:57;;;;;;;8.70;4.10;;;;;;;9.46;49.36;100410.36;106143;1280;75001;-93
2023/04/30 01:55:36;;;;;;;6.60;4.10;;;;;;;9.40;49.48;100412.86;106019;1283;73607;-92
2023/04/30 01:58:06;;;;;;;9.30;4.10;;;;;;;9.37;49.60;100408.41;106103;1283;72908;-92
2023/04/30 02:00:33;;;;;;;9.50;4.80;;;;;;;9.33;49.71;100405.17;105965;1282;61026;-95
2023/04/30 02:03:01;;;;;;;7.40;4.60;;;;;;;9.30;49.68;100403.01;106208;1280;61712;-92
2023/04/30 02:05:29;;;;;;;10.60;4.20;;;;;;;9.28;49.61;100404.59;106106;1279;74914;-93
2023/04/30 02:07:57;;;;;;;7.40;3.90;;;;;;;9.26;49.64;100403.83;105856;1279;73857;-93
2023/04/30 02:10:25;;;;;;;7.30;3.80;;;;;;;9.24;49.75;100403.11;106142;1279;74058;-93
2023/04/30 02:12:52;;;;;;;9.50;4.30;;;;;;;9.42;49.42;100402.74;105858;1281;60292;-94
2023/04/30 02:15:20;;;;;;;7.10;3.90;;;;;;;9.50;49.14;100401.92;106141;1285;61454;-94
2023/04/30 02:17:49;;;;;;;6.90;3.80;;;;;;;9.51;49.15;100398.83;106026;1285;75144;-91
2023/04/30 02:20:16;;;;;;;8.80;4.90;;;;;;;9.27;49.48;100405.06;106128;1281;73846;-92
2023/04/30 02:22:43;;;;;;;6.30;3.60;;;;;;;9.31;49.52;100401.20;106071;1279;73028;-93
2023/04/30 02:25:11;;;;;;;7.30;3.60;;;;;;;9.41;49.18;100397.10;106160;1280;60373;-93
2023/04/30 02:27:38;;;;;;;7.20;3.90;;;;;;;9.41;49.06;100399.06;106035;1281;60425;-92
2023/04/30 02:30:06;;;;;;;6.50;3.70;;;;;;;9.39;48.93;100395.21;106151;1279;72789;-94
2023/04/30 02:32:33;;;;;;;6.20;3.50;;;;;;;9.38;48.89;100389.51;106244;1279;72571;-93
2023/04/30 02:35:00;;;;;;;6.10;3.50;;;;;;;9.38;48.74;100391.25;106034;1281;73531;-93
2023/04/30 02:37:27;;;;;;;6.10;3.40;;;;;;;9.37;48.66;100392.62;105974;1282;59385;-92
2023/04/30 02:39:54;;;;;;;8.40;3.50;;;;;;;9.39;48.47;100389.51;106044;1279;61023;-94
2023/04/30 02:42:21;;;;;;;7.30;3.20;;;;;;;9.43;48.34;100386.82;106176;1279;74881;-92
2023/04/30 02:44:48;;;;;;;6.60;3.80;;;;;;;9.48;48.18;100386.22;106604;1280;72797;-92
2023/04/30 02:47:18;;;;;;;7.00;3.40;;;;;;;9.52;48.05;100383.70;106200;1280;72446;-92
2023/04/30 02:49:45;;;;;;;8.40;3.50;;;;;;;9.57;47.91;100384.80;105870;1280;60412;-93
2023/04/30 02:52:12;;;;;;;6.30;3.20;;;;;;;9.61;47.79;100379.45;106092;1280;60382;-91
2023/04/30 02:54:39;;;;;;;5.50;3.00;;;;;;;9.65;47.74;100381.45;106262;1279;71893;-91
2023/04/30 02:57:06;;;;;;;6.10;3.30;;;;;;;9.69;47.60;100376.95;106132;1280;72620;-93
2023/04/30 02:59:34;;;;;;;5.80;3.60;;;;;;;9.74;47.55;100373.73;106294;1279;73474;-92
2023/04/30 03:02:04;;;;;;;7.60;3.90;;;;;;;9.77;47.47;100373.75;106240;1279;60356;-93
2023/04/30 03:04:31;;;;;;;8.10;3.80;;;;;;;9.79;47.43;100373.50;106223;1279;60327;-94
2023/04/30 03:06:59;;;;;;;6.70;3.70;;;;;;;9.80;47.42;100373.14;106207;1279;74957;-91
2023/04/30 03:09:26;;;;;;;6.80;3.50;;;;;;;9.83;47.36;100377.00;106268;1280;72943;-93
2023/04/30 03:11:53;;;;;;;5.10;3.30;;;;;;;9.86;47.33;100374.46;106171;1283;73444;-91
2023/04/30 03:14:20;;;;;;;5.70;3.20;;;;;;;9.90;47.35;100373.26;106262;1280;60287;-92
2023/04/30 03:16:48;;;;;;;5.40;2.80;;;;;;;9.94;47.41;100372.80;106159;1282;60477;-92
2023/04/30 03:19:20;;;;;;;5.60;2.80;;;;;;;9.97;47.29;100373.90;106151;1283;74448;-92
2023/04/30 03:21:48;;;;;;;5.00;2.90;;;;;;;10.01;47.29;100372.00;105989;1279;72568;-92
2023/04/30 03:24:18;;;;;;;3.80;2.30;;;;;;;10.05;47.26;100371.86;106061;1279;73650;-92
2023/04/30 03:26:46;;;;;;;5.20;2.60;;;;;;;10.09;47.22;100373.05;106015;1283;60756;-92
2023/04/30 03:29:14;;;;;;;9.20;2.80;;;;;;;10.13;47.02;100371.48;106012;1279;61267;-92
2023/04/30 03:31:42;;;;;;;5.60;2.80;;;;;;;10.16;46.85;100362.38;106084;1280;75135;-92
2023/04/30 03:34:10;;;;;;;5.70;2.90;;;;;;;10.19;46.72;100360.37;105971;1286;74142;-93
2023/04/30 03:36:37;;;;;;;5.20;2.90;;;;;;;10.23;46.68;100359.31;105819;1282;73823;-93
2023/04/30 03:39:08;;;;;;;6.40;3.30;;;;;;;10.27;46.80;100360.92;105797;1288;60505;-91
2023/04/30 03:41:36;;;;;;;5.00;2.80;;;;;;;10.29;46.76;100359.69;106024;1283;60578;-92
2023/04/30 03:44:05;;;;;;;6.60;3.00;;;;;;;10.32;46.71;100363.34;105887;1283;75126;-92
2023/04/30 03:46:33;;;;;;;5.50;3.10;;;;;;;10.36;46.78;100364.27;106102;1279;73869;-93
2023/04/30 03:49:00;;;;;;;5.70;2.70;;;;;;;10.41;46.85;100367.44;106037;1279;74035;-93
2023/04/30 03:51:31;;;;;;;4.60;2.90;;;;;;;10.44;46.84;100369.17;105743;1280;60889;-91
2023/04/30 03:54:00;;;;;;;5.40;2.90;;;;;;;10.48;46.87;100371.86;105878;1282;61376;-93
2023/04/30 03:56:34;;;;;;;5.80;2.90;;;;;;;10.52;46.75;100372.03;106187;1283;75000;-94
2023/04/30 03:59:05;;;;;;;4.80;2.60;;;;;;;10.56;46.83;100371.08;105982;1283;73099;-93
2023/04/30 04:01:49;;;;;;;5.30;2.70;;;;;;;10.60;46.68;100363.52;105998;1285;74535;-92
2023/04/30 04:04:19;;;;;;;5.00;2.90;;;;;;;10.64;46.60;100364.43;105868;1282;60491;-95
2023/04/30 04:06:47;;;;;;;4.70;2.60;;;;;;;10.68;46.44;100363.86;105712;1282;61520;-92
2023/04/30 04:09:15;;;;;;;5.60;2.90;;;;;;;10.73;46.59;100366.39;105873;1280;73791;-90
2023/04/30 04:11:42;;;;;;;6.20;2.60;;;;;;;10.78;46.67;100365.92;106173;1282;72959;-92
2023/04/30 04:14:09;;;;;;;5.70;2.80;;;;;;;10.82;46.41;100363.38;106151;1280;73762;-94
2023/04/30 04:16:36;;;;;;;3.90;2.20;;;;;;;10.88;46.29;100361.03;106488;1280;60620;-95
2023/04/30 04:19:03;;;;;;;4.00;2.40;;;;;;;10.93;46.26;100358.74;106486;1283;61581;-93
2023/04/30 04:21:32;;;;;;;4.50;2.60;;;;;;;10.97;46.20;100357.75;106394;1283;75045;-94
2023/04/30 04:24:07;;;;;;;6.90;3.00;;;;;;;11.03;46.19;100357.80;106413;1282;73085;-93
2023/04/30 04:26:36;;;;;;;7.60;2.90;;;;;;;11.10;46.17;100358.20;106191;1282;72768;-94
2023/04/30 04:29:12;;;;;;;9.30;3.00;;;;;;;11.14;46.03;100354.95;105848;1281;59475;-93
2023/04/30 04:31:43;;;;;;;6.40;3.00;;;;;;;11.17;46.00;100352.65;106148;1279;60709;-94
2023/04/30 04:34:21;;;;;;;4.20;2.30;;;;;;;11.22;45.99;100357.62;106456;1279;73937;-94
2023/04/30 04:37:18;;;;;;;5.00;2.80;;;;;;;11.29;45.99;100355.13;106945;1279;74085;-95
2023/04/30 04:40:11;;;;;;;5.50;2.60;;;;;;;11.40;45.97;100359.23;106177;1284;72695;-94
2023/04/30 04:42:41;;;;;;;5.00;2.40;;;;;;;11.46;45.81;100354.59;106173;1283;60489;-92
2023/04/30 04:45:10;;;;;;;5.30;2.40;;;;;;;11.55;45.49;100358.02;106023;1279;61513;-94
2023/04/30 04:47:38;;;;;;;5.50;2.60;;;;;;;11.61;45.38;100357.48;106404;1279;74801;-92
2023/04/30 04:50:10;;;;;;;4.10;2.30;;;;;;;11.67;45.25;100352.34;106428;1280;72910;-92
2023/04/30 04:52:38;;;;;;;5.50;2.80;;;;;;;11.73;44.93;100351.69;106498;1280;71671;-94
2023/04/30 04:55:11;;;;;;;4.30;2.50;;;;;;;11.79;44.63;100357.20;106047;1280;60665;-92
2023/04/30 04:57:41;;;;;;;5.20;2.70;;;;;;;11.85;44.42;100351.07;105895;1282;60456;-92
2023/04/30 05:00:10;;;;;;;3.60;2.30;;;;;;;11.89;44.39;100350.47;106060;1283;72459;-94
2023/04/30 05:02:38;;;;;;;5.00;2.60;;;;;;;11.98;44.28;100347.13;106047;1283;73860;-94
2023/04/30 05:05:09;;;;;;;4.80;2.50;;;;;;;12.10;44.29;100348.02;106214;1279;72696;-93
2023/04/30 05:07:37;;;;;;;4.00;2.40;;;;;;;12.16;43.61;100345.69;106188;1282;59655;-92
2023/04/30 05:10:06;;;;;;;5.00;2.40;;;;;;;12.24;43.38;100342.61;106038;1283;61348;-94
2023/04/30 05:12:35;;;;;;;5.60;2.80;;;;;;;12.33;42.98;100343.34;106024;1282;74867;-93
2023/04/30 05:15:10;;;;;;;3.50;2.10;;;;;;;12.41;42.65;100344.27;106275;1279;70988;-95
2023/04/30 05:17:42;;;;;;;5.60;2.50;;;;;;;12.48;42.38;100346.33;106339;1285;72515;-92
2023/04/30 05:20:10;;;;;;;4.40;2.30;;;;;;;12.54;42.08;100347.96;106357;1280;60329;-94
2023/04/30 05:22:38;;;;;;;4.70;2.90;;;;;;;12.60;42.06;100346.48;106488;1280;60193;-93
2023/04/30 05:25:16;;;;;;;4.40;2.30;;;;;;;12.66;41.69;100339.48;106447;1279;74222;-95
2023/04/30 05:27:57;;;;;;;4.60;2.60;;;;;;;12.70;41.30;100339.85;106562;1280;73745;-94
2023/04/30 05:30:30;;;;;;;3.90;2.10;;;;;;;12.74;41.30;100340.20;106221;1280;72694;-94
2023/04/30 05:33:13;;;;;;;4.40;2.60;;;;;;;12.76;41.07;100338.73;106358;1279;60390;-94
2023/04/30 05:35:54;;;;;;;;;;;;;;;12.78;40.73;100333.05;106360;1280;60187;-94
2023/04/30 05:38:22;;;;;;;5.00;2.40;;;;;;;12.79;40.36;100329.55;106437;1280;74804;-94
2023/04/30 05:40:49;;;;;;;5.00;2.30;;;;;;;12.82;40.10;100329.17;106461;1279;71036;-90
2023/04/30 05:43:16;;;;;;;5.20;2.50;;;;;;;12.85;39.67;100329.30;106463;1280;71439;-94
2023/04/30 05:45:45;;;;;;;4.30;2.50;;;;;;;12.89;39.27;100329.39;106695;1279;60287;-94
2023/04/30 05:48:13;;;;;;;4.10;2.30;;;;;;;12.94;39.05;100327.48;106257;1280;60462;-93
2023/04/30 05:50:41;;;;;;;4.00;2.20;;;;;;;12.97;38.97;100327.89;106020;1280;73913;-93
2023/04/30 05:53:08;;;;;;;4.10;2.40;;;;;;;13.02;38.72;100324.05;106242;1280;72951;-93
2023/04/30 05:55:43;;;;;;;4.80;2.40;;;;;;;13.07;38.59;100326.11;106224;1280;73714;-93
2023/04/30 05:58:12;;;;;;;3.20;1.70;;;;;;;13.12;37.81;100320.60;106160;1280;60533;-94
2023/04/30 06:00:40;;;;;;;4.50;2.10;;;;;;;13.14;37.62;100316.08;106053;1280;60177;-93
2023/04/30 06:03:08;;;;;;;4.60;1.90;;;;;;;13.17;37.39;100308.94;106307;1279;75199;-93
2023/04/30 06:05:47;;;;;;;3.50;2.00;;;;;;;13.20;37.15;100306.05;106124;1280;70866;-95
2023/04/30 06:08:21;;;;;;;3.90;1.60;;;;;;;13.23;36.56;100304.98;106187;1280;72510;-92
2023/04/30 06:10:49;;;;;;;4.50;1.50;;;;;;;13.28;36.31;100300.84;106363;1280;60597;-94
2023/04/30 06:13:17;;;;;;;3.10;1.80;;;;;;;13.35;35.96;100297.08;106285;1280;61540;-93
2023/04/30 06:15:48;;;;;;;4.80;2.10;;;;;;;13.39;35.72;100297.36;106557;1279;73250;-92
2023/04/30 06:18:19;;;;;;;3.90;1.70;;;;;;;13.41;35.14;100301.38;106147;1280;73618;-95
2023/04/30 06:20:47;;;;;;;4.10;1.70;;;;;;;13.44;34.97;100296.17;106284;1280;72397;-92
2023/04/30 06:23:30;;;;;;;4.00;1.70;;;;;;;13.49;34.70;100298.61;106359;1280;60329;-95
2023/04/30 06:25:59;;;;;;;3.60;1.80;;;;;;;13.53;34.57;100293.20;106248;1279;60648;-93
2023/04/30 06:28:32;;;;;;;3.50;1.60;;;;;;;13.60;34.58;100292.98;105606;1280;5194699;-93
2023/04/30 06:31:09;;;;;;;7.60;2.00;;;;;;;13.66;34.18;100289.33;106398;1280;73532;-94
2023/04/30 06:33:37;;;;;;;3.40;1.30;;;;;;;13.71;34.17;100288.09;106582;1280;73722;-95
2023/04/30 06:36:08;;;;;;;3.60;1.90;;;;;;;13.76;33.89;100282.87;106488;1279;72587;-94
2023/04/30 06:38:36;;;;;;;3.40;1.70;;;;;;;13.82;33.43;100282.77;106606;1280;59528;-91
2023/04/30 06:41:25;;;;;;;2.80;1.50;;;;;;;13.84;33.10;100276.30;106652;1279;61258;-93
2023/04/30 06:43:54;;;;;;;3.90;1.70;;;;;;;13.87;33.02;100272.10;106840;1279;73919;-93
2023/04/30 06:46:34;;;;;;;4.30;1.50;;;;;;;13.88;32.48;100271.80;106537;1280;71687;-90
2023/04/30 06:49:04;;;;;;;7.10;2.10;;;;;;;13.89;32.29;100271.05;106612;1281;72696;-90
2023/04/30 06:51:33;;;;;;;3.90;1.60;;;;;;;13.93;32.39;100270.29;106523;1280;61434;-93
2023/04/30 06:54:00;;;;;;;3.50;1.60;;;;;;;13.99;32.12;100265.30;106601;1281;60936;-94
2023/04/30 06:56:27;;;;;;;3.90;1.40;;;;;;;14.03;32.02;100261.70;106546;1280;73953;-92
2023/04/30 06:58:57;;;;;;;4.80;1.90;;;;;;;14.04;31.67;100265.98;106520;1280;74826;-93
2023/04/30 07:01:26;;;;;;;4.40;1.40;;;;;;;13.99;30.85;100261.63;106798;1279;71964;-95
2023/04/30 07:03:57;;;;;;;3.80;1.30;;;;;;;13.97;31.12;100255.05;106871;1280;61697;-92
2023/04/30 07:06:28;;;;;;;2.60;1.20;;;;;;;13.99;31.30;100255.84;106729;1280;60383;-92
2023/04/30 07:09:06;;;;;;;3.80;1.40;;;;;;;14.03;31.42;100248.60;106512;1279;74754;-94
2023/04/30 07:11:35;;;;;;;3.40;1.40;;;;;;;14.07;31.28;100239.40;106562;1280;71781;-92
2023/04/30 07:14:03;;;;;;;2.60;1.20;;;;;;;14.08;30.88;100230.86;106726;1280;71584;-95
2023/04/30 07:16:31;;;;;;;3.50;1.40;;;;;;;14.10;30.72;100234.98;106441;1279;61596;-95
2023/04/30 07:18:58;;;;;;;2.50;1.30;;;;;;;14.12;31.12;100231.03;106512;1279;61124;-93
2023/04/30 07:21:26;;;;;;;4.20;1.50;;;;;;;14.18;31.38;100231.27;106196;1279;75008;-91
2023/04/30 07:23:56;;;;;;;2.30;1.30;;;;;;;14.22;30.96;100225.63;106621;1279;72123;-94
2023/04/30 07:26:50;;;;;;;3.50;1.80;;;;;;;14.27;31.30;100227.29;106639;1279;71391;-95
2023/04/30 07:29:20;;;;;;;3.60;1.40;;;;;;;14.32;30.88;100227.32;106781;1280;60507;-92
2023/04/30 07:31:47;;;;;;;4.30;1.60;;;;;;;14.35;29.92;100225.30;106517;1280;60404;-91
2023/04/30 07:34:24;;;;;;;2.10;1.30;;;;;;;14.35;29.95;100223.20;106727;1279;75139;-95
2023/04/30 07:36:53;;;;;;;2.90;1.40;;;;;;;14.34;30.30;100217.09;106672;1280;74038;-93
2023/04/30 07:39:24;;;;;;;2.50;1.30;;;;;;;14.35;30.14;100223.70;106605;1280;72483;-93
2023/04/30 07:41:57;;;;;;;3.60;1.20;;;;;;;14.36;30.25;100224.27;106453;1279;60568;-90
2023/04/30 07:44:24;;;;;;;2.70;1.20;;;;;;;14.39;30.26;100219.38;106630;1280;60000;-92
2023/04/30 07:46:52;;;;;;;3.50;1.50;;;;;;;14.40;29.74;100212.48;106490;1280;73949;-90
2023/04/30 07:49:19;;;;;;;2.70;1.30;;;;;;;14.38;29.42;100213.70;106823;1280;71127;-93
2023/04/30 07:51:49;;;;;;;2.20;1.20;;;;;;;14.37;29.61;100210.27;107077;1280;73697;-92
2023/04/30 07:54:21;;;;;;;2.40;1.40;;;;;;;14.40;29.88;100202.39;106772;1285;60184;-94
2023/04/30 07:56:50;;;;;;;2.90;1.10;;;;;;;14.44;30.01;100201.04;106586;1279;60719;-91
2023/04/30 07:59:17;;;;;;;2.60;1.20;;;;;;;14.47;29.73;100200.40;106142;1280;74027;-92
2023/04/30 08:01:44;;;;;;;3.00;1.40;;;;;;;14.45;29.73;100196.02;106512;1286;73990;-95
2023/04/30 08:04:11;;;;;;;3.70;1.40;;;;;;;14.44;29.65;100203.94;106341;1280;71571;-92
2023/04/30 08:06:38;;;;;;;2.80;1.20;;;;;;;14.42;29.64;100191.52;106846;1280;60427;-94
2023/04/30 08:09:06;;;;;;;4.10;1.30;;;;;;;14.42;29.94;100196.73;106887;1279;59942;-93
2023/04/30 08:11:36;;;;;;;2.90;1.20;;;;;;;14.45;29.97;100197.53;106675;1279;75145;-94
2023/04/30 08:14:05;;;;;;;3.70;1.60;;;;;;;14.47;29.45;100193.64;106509;1278;72606;-95
2023/04/30 08:16:33;;;;;;;2.30;1.10;;;;;;;14.46;29.21;100194.77;106337;1280;74015;-96
2023/04/30 08:19:00;;;;;;;2.40;1.30;;;;;;;14.47;29.40;100198.48;106365;1279;60111;-93
2023/04/30 08:21:35;;;;;;;3.90;1.50;;;;;;;14.51;29.98;100197.41;106449;1285;61140;-86
2023/04/30 08:24:06;;;;;;;2.70;1.10;;;;;;;14.55;29.74;100195.48;106582;1280;73855;-95
2023/04/30 08:26:36;;;;;;;3.90;1.30;;;;;;;14.64;29.81;100195.12;106091;1280;73807;-95
2023/04/30 08:29:03;;;;;;;3.00;1.40;;;;;;;14.75;30.09;100195.10;106371;1280;73884;-93
2023/04/30 08:31:31;;;;;;;4.40;1.40;;;;;;;14.89;29.80;100189.03;106477;1279;61450;-96
2023/04/30 08:33:59;;;;;;;2.40;1.20;;;;;;;15.04;29.42;100193.02;106113;1279;61468;-93
2023/04/30 08:36:31;;;;;;;3.30;1.70;;;;;;;15.15;28.76;100194.50;106037;1280;73737;-95
2023/04/30 08:39:01;;;;;;;3.70;1.30;;;;;;;15.25;29.27;100198.52;106343;1280;72880;-93
2023/04/30 08:41:34;;;;;;;3.90;1.40;;;;;;;15.32;28.24;100195.76;106459;1285;72627;-95
2023/04/30 08:44:05;;;;;;;3.80;1.30;;;;;;;15.38;28.76;100190.10;106613;1279;60485;-94
2023/04/30 08:46:40;;;;;;;3.10;1.30;;;;;;;15.53;28.64;100190.95;106397;1279;60440;-94
2023/04/30 08:49:09;;;;;;;2.90;1.20;;;;;;;15.72;28.20;100190.80;106289;1280;73701;-92
2023/04/30 08:51:38;;;;;;;2.30;1.00;;;;;;;15.85;27.21;100185.16;106319;1285;72759;-94
2023/04/30 08:54:10;;;;;;;2.40;1.30;;;;;;;15.94;27.08;100188.42;106020;1279;70865;-91
2023/04/30 08:56:40;;;;;;;4.00;1.10;;;;;;;15.98;26.58;100182.28;106494;1279;60162;-92
2023/04/30 08:59:11;;;;;;;4.10;1.30;;;;;;;16.00;26.39;100176.69;106880;1280;60506;-95
2023/04/30 09:02:02;;;;;;;2.50;1.00;;;;;;;16.04;26.93;100178.30;106506;1280;73724;-94
2023/04/30 09:04:30;;;;;;;4.60;1.40;;;;;;;16.17;27.19;100185.94;106528;1279;71636;-94
2023/04/30 09:06:58;;;;;;;4.00;1.20;;;;;;;16.28;26.77;100184.25;106722;1280;73802;-92
2023/04/30 09:09:37;;;;;;;2.70;1.20;;;;;;;16.37;26.97;100178.07;106317;1280;60305;-94
2023/04/30 09:12:18;;;;;;;3.60;1.10;;;;;;;16.42;26.84;100179.41;106313;1279;60383;-92
2023/04/30 09:15:05;;;;;;;2.50;1.30;;;;;;;16.41;25.60;100182.07;106376;1280;73712;-91
2023/04/30 09:17:34;;;;;;;2.40;1.30;;;;;;;16.34;25.52;100178.52;106473;1279;71257;-92
2023/04/30 09:20:11;;;;;;;2.50;1.10;;;;;;;16.33;25.72;100180.35;106372;1280;72178;-93
2023/04/30 09:22:40;;;;;;;2.90;1.20;;;;;;;16.31;25.94;100177.29;107420;1279;60446;-94
2023/04/30 09:25:14;;;;;;;2.60;1.10;;;;;;;16.34;26.40;100180.89;107490;1280;60195;-87
2023/04/30 09:27:41;;;;;;;1.90;1.10;;;;;;;16.37;26.19;100172.90;107675;1278;73723;-89
2023/04/30 09:30:09;;;;;;;2.70;1.30;;;;;;;16.38;26.25;100171.64;107213;1279;72672;-90
2023/04/30 09:32:59;;;;;;;4.20;1.30;;;;;;;16.40;26.41;100169.15;107525;1279;71288;-86
2023/04/30 09:35:46;;;;;;;4.10;1.30;;;;;;;16.38;25.75;100170.70;107384;1280;61882;-88
2023/04/30 09:38:26;;;;;;;1.90;1.10;;;;;;;16.33;25.10;100174.48;107332;1279;59832;-92
2023/04/30 09:40:53;;;;;;;2.60;1.20;;;;;;;16.24;25.36;100166.39;107522;1280;73645;-91
2023/04/30 09:43:22;;;;;;;4.00;1.00;;;;;;;16.17;25.03;100162.23;106896;1278;73374;-92
2023/04/30 09:45:51;;;;;;;2.90;1.30;;;;;;;16.12;24.77;100157.66;106900;1280;71926;-93
2023/04/30 09:48:22;;;;;;;2.00;0.90;;;;;;;16.14;25.06;100155.95;106911;1279;60516;-93
2023/04/30 09:50:51;;;;;;;3.20;1.30;;;;;;;16.25;25.43;100156.64;107083;1278;60376;-93
2023/04/30 09:53:22;;;;;;;3.30;1.20;;;;;;;16.37;25.94;100157.90;106521;1280;74139;-92
2023/04/30 09:55:50;;;;;;;4.70;1.30;;;;;;;16.42;25.03;100157.85;106460;1279;72081;-94
2023/04/30 09:58:18;;;;;;;2.90;1.20;;;;;;;16.36;24.85;100153.84;106443;1280;71266;-94
2023/04/30 10:00:48;;;;;;;4.50;1.30;;;;;;;16.39;25.60;100157.75;106588;1280;61444;-95
2023/04/30 10:03:16;;;;;;;4.50;1.20;;;;;;;16.42;25.27;100153.70;106270;1280;61458;-93
2023/04/30 10:05:48;;;;;;;3.60;1.10;;;;;;;16.40;24.94;100155.93;106383;1279;72635;-91
2023/04/30 10:08:44;;;;;;;3.60;1.00;;;;;;;16.35;24.82;100152.19;106591;1279;73197;-94
2023/04/30 10:11:15;;;;;;;3.20;1.10;;;;;;;16.35;25.28;100151.60;106568;1279;73824;-91
2023/04/30 10:13:58;;;;;;;2.90;1.00;;;;;;;16.38;24.86;100147.52;106506;1282;60187;-91
2023/04/30 10:16:35;;;;;;;3.10;1.20;;;;;;;16.37;24.90;100144.80;106219;1280;60535;-93
2023/04/30 10:19:09;;;;;;;2.60;1.20;;;;;;;16.42;25.28;100147.29;106316;1278;74236;-95
2023/04/30 10:21:38;;;;;;;1.90;1.00;;;;;;;16.44;25.19;100146.41;106577;1279;71630;-91
2023/04/30 10:24:05;;;;;;;4.30;1.00;;;;;;;16.45;25.21;100139.27;106273;1280;70616;-91
2023/04/30 10:26:32;;;;;;;2.00;1.10;;;;;;;16.45;25.04;100143.60;106516;1280;59582;-92
2023/04/30 10:29:00;;;;;;;3.30;1.10;;;;;;;16.50;25.08;100135.98;106499;1284;61602;-90
2023/04/30 10:31:27;;;;;;;2.40;1.10;;;;;;;16.53;25.08;100128.25;106490;1282;73733;-91
2023/04/30 10:34:25;;;;;;;3.00;1.30;;;;;;;16.63;25.37;100132.21;106471;1280;73777;-92
2023/04/30 10:36:59;;;;;;;3.90;1.30;;;;;;;16.70;26.32;100130.31;106642;1279;73652;-91
2023/04/30 10:39:27;;;;;;;2.80;1.20;;;;;;;16.78;26.56;100136.33;106705;1278;60399;-94
2023/04/30 10:42:10;;;;;;;4.90;1.40;;;;;;;16.84;26.31;100130.05;106494;1282;60395;-93
2023/04/30 10:44:37;;;;;;;3.40;1.30;;;;;;;16.85;26.19;100122.73;106594;1280;73906;-94
2023/04/30 10:47:06;;;;;;;2.50;1.10;;;;;;;16.89;26.55;100125.13;106517;1279;73589;-93
2023/04/30 10:49:38;;;;;;;2.70;1.20;;;;;;;17.01;26.75;100120.48;106342;1279;72474;-91
2023/04/30 10:52:05;;;;;;;4.30;1.50;;;;;;;17.17;26.49;100115.00;106803;1279;59934;-92
2023/04/30 10:54:34;;;;;;;2.90;1.30;;;;;;;17.26;25.88;100110.23;106679;1279;60415;-93
2023/04/30 10:57:18;;;;;;;2.70;1.40;;;;;;;17.24;25.55;100115.81;106286;1280;74937;-92
2023/04/30 11:00:20;;;;;;;2.50;1.20;;;;;;;17.14;25.61;100115.81;106140;1279;71515;-94
2023/04/30 11:02:48;;;;;;;3.20;1.30;;;;;;;17.08;25.87;100111.45;106636;1284;71859;-91
2023/04/30 11:05:17;;;;;;;2.20;1.10;;;;;;;17.01;25.80;100120.98;106437;1281;60235;-91
2023/04/30 11:07:49;;;;;;;3.60;1.10;;;;;;;16.92;25.46;100122.22;106780;1279;60337;-96
2023/04/30 11:10:22;;;;;;;2.20;1.10;;;;;;;16.90;25.60;100119.96;106765;1279;75038;-95
2023/04/30 11:12:54;;;;;;;1.90;1.10;;;;;;;16.90;25.34;100116.46;106426;1280;74178;-94
2023/04/30 11:15:25;;;;;;;2.40;1.20;;;;;;;16.84;25.06;100119.90;106448;1280;72783;-92
2023/04/30 11:17:59;;;;;;;3.20;1.30;;;;;;;16.86;25.46;100115.97;106048;1279;60380;-93
2023/04/30 11:20:43;;;;;;;3.70;1.30;;;;;;;16.92;25.46;100121.90;106302;1280;59847;-92
2023/04/30 11:23:11;;;;;;;2.40;1.20;;;;;;;16.98;25.53;100113.66;106534;1280;72812;-92
2023/04/30 11:26:08;;;;;;;2.20;1.10;;;;;;;17.03;25.42;100120.66;106539;1279;72917;-91
2023/04/30 11:28:37;;;;;;;4.60;1.80;;;;;;;17.04;25.59;100111.71;106538;1280;72674;-92
2023/04/30 11:31:05;;;;;;;4.80;1.30;;;;;;;17.04;25.80;100107.77;106450;1280;60435;-91
2023/04/30 11:33:34;;;;;;;2.90;1.40;;;;;;;17.06;25.63;100111.60;106449;1280;60440;-92
2023/04/30 11:36:06;;;;;;;3.00;1.20;;;;;;;17.09;25.63;100111.16;106536;1279;75123;-94
2023/04/30 11:38:41;;;;;;;2.90;1.20;;;;;;;17.10;25.44;100107.21;106582;1282;72493;-92